sensor_id;sensor_type;location;lat;lon;timestamp;pressure;altitude;pressure_sealevel;temperature;humidity
48792;BME280;34587;48.816;9.420;2023-09-18T04:16:53;98208.81;;;17.75;100.00
48792;BME280;34587;48.816;9.420;2023-09-18T04:19:19;98197.28;;;17.78;100.00
48792;BME280;34587;48.816;9.420;2023-09-18T04:21:44;98200.16;;;17.73;100.00
48792;BME280;34587;48.816;9.420;2023-09-18T04:24:09;98210.59;;;17.75;100.00
48792;BME280;34587;48.816;9.420;2023-09-18T04:26:34;98209.94;;;17.69;100.00
48792;BME280;34587;48.816;9.420;2023-09-18T04:29:00;98207.25;;;17.87;100.00
48792;BME280;34587;48.816;9.420;2023-09-18T04:31:27;98202.09;;;17.85;100.00
48792;BME280;34587;48.816;9.420;2023-09-18T04:33:53;98190.53;;;17.73;100.00
48792;BME280;34587;48.816;9.420;2023-09-18T04:36:18;98193.31;;;17.86;100.00
48792;BME280;34587;48.816;9.420;2023-09-18T04:38:43;98178.00;;;17.79;100.00
48792;BME280;34587;48.816;9.420;2023-09-18T04:41:08;98163.81;;;17.83;100.00
48792;BME280;34587;48.816;9.420;2023-09-18T04:43:35;98146.56;;;17.79;100.00
48792;BME280;34587;48.816;9.420;2023-09-18T04:46:01;98145.38;;;17.84;100.00
48792;BME280;34587;48.816;9.420;2023-09-18T04:48:29;98125.25;;;17.85;100.00
48792;BME280;34587;48.816;9.420;2023-09-18T04:50:55;98101.63;;;18.15;100.00
48792;BME280;34587;48.816;9.420;2023-09-18T04:53:20;98085.59;;;18.05;100.00
48792;BME280;34587;48.816;9.420;2023-09-18T04:55:45;98087.56;;;18.02;100.00
48792;BME280;34587;48.816;9.420;2023-09-18T04:58:14;98087.84;;;17.97;100.00
48792;BME280;34587;48.816;9.420;2023-09-18T05:00:39;98079.94;;;17.83;100.00
48792;BME280;34587;48.816;9.420;2023-09-18T05:03:05;98070.97;;;17.87;100.00
48792;BME280;34587;48.816;9.420;2023-09-18T05:05:31;98081.97;;;17.78;100.00
48792;BME280;34587;48.816;9.420;2023-09-18T05:07:56;98117.31;;;17.70;100.00
48792;BME280;34587;48.816;9.420;2023-09-18T05:10:22;98120.09;;;17.67;100.00
48792;BME280;34587;48.816;9.420;2023-09-18T05:12:48;98117.31;;;17.86;100.00
48792;BME280;34587;48.816;9.420;2023-09-18T05:15:15;98126.94;;;17.86;100.00
48792;BME280;34587;48.816;9.420;2023-09-18T05:17:46;98131.34;;;17.85;100.00
48792;BME280;34587;48.816;9.420;2023-09-18T05:20:12;98132.56;;;17.80;100.00
48792;BME280;34587;48.816;9.420;2023-09-18T05:22:39;98138.81;;;17.61;100.00
48792;BME280;34587;48.816;9.420;2023-09-18T05:25:04;98135.22;;;17.94;100.00
48792;BME280;34587;48.816;9.420;2023-09-18T05:27:32;98124.66;;;18.10;100.00
48792;BME280;34587;48.816;9.420;2023-09-18T05:29:57;98104.94;;;18.18;100.00
48792;BME280;34587;48.816;9.420;2023-09-18T05:32:22;98101.00;;;18.26;100.00
48792;BME280;34587;48.816;9.420;2023-09-18T05:34:48;98109.03;;;18.22;100.00
48792;BME280;34587;48.816;9.420;2023-09-18T05:37:13;98129.28;;;18.20;100.00
48792;BME280;34587;48.816;9.420;2023-09-18T05:39:39;98130.38;;;18.16;100.00
48792;BME280;34587;48.816;9.420;2023-09-18T05:42:05;98137.31;;;18.17;100.00
48792;BME280;34587;48.816;9.420;2023-09-18T05:44:30;98144.59;;;18.12;100.00
48792;BME280;34587;48.816;9.420;2023-09-18T05:46:55;98149.06;;;17.96;100.00
48792;BME280;34587;48.816;9.420;2023-09-18T05:49:21;98138.75;;;17.93;100.00
48792;BME280;34587;48.816;9.420;2023-09-18T05:51:46;98144.81;;;18.09;100.00
48792;BME280;34587;48.816;9.420;2023-09-18T05:54:13;98153.78;;;18.05;100.00
48792;BME280;34587;48.816;9.420;2023-09-18T05:56:39;98145.66;;;18.10;100.00
48792;BME280;34587;48.816;9.420;2023-09-18T05:59:04;98151.41;;;18.45;100.00
48792;BME280;34587;48.816;9.420;2023-09-18T06:01:31;98129.91;;;18.68;100.00
48792;BME280;34587;48.816;9.420;2023-09-18T06:03:58;98136.44;;;18.90;100.00
48792;BME280;34587;48.816;9.420;2023-09-18T06:06:23;98138.09;;;19.19;100.00
48792;BME280;34587;48.816;9.420;2023-09-18T06:08:50;98139.78;;;19.20;100.00
48792;BME280;34587;48.816;9.420;2023-09-18T06:11:15;98147.78;;;19.05;100.00
48792;BME280;34587;48.816;9.420;2023-09-18T06:13:41;98143.72;;;19.13;100.00
48792;BME280;34587;48.816;9.420;2023-09-18T06:16:06;98140.16;;;19.14;100.00
48792;BME280;34587;48.816;9.420;2023-09-18T06:18:33;98136.59;;;19.30;100.00
48792;BME280;34587;48.816;9.420;2023-09-18T06:21:03;98124.66;;;19.24;100.00
48792;BME280;34587;48.816;9.420;2023-09-18T06:23:28;98124.94;;;19.19;100.00
48792;BME280;34587;48.816;9.420;2023-09-18T06:25:54;98116.19;;;19.06;100.00
48792;BME280;34587;48.816;9.420;2023-09-18T06:28:22;98118.59;;;19.09;100.00
48792;BME280;34587;48.816;9.420;2023-09-18T06:30:47;98111.38;;;19.13;100.00
48792;BME280;34587;48.816;9.420;2023-09-18T06:33:13;98105.00;;;19.17;100.00
48792;BME280;34587;48.816;9.420;2023-09-18T06:35:38;98116.13;;;19.35;100.00
48792;BME280;34587;48.816;9.420;2023-09-18T06:38:05;98130.38;;;19.31;100.00
48792;BME280;34587;48.816;9.420;2023-09-18T06:40:34;98137.16;;;19.47;100.00
48792;BME280;34587;48.816;9.420;2023-09-18T06:43:00;98135.75;;;19.56;100.00
48792;BME280;34587;48.816;9.420;2023-09-18T06:45:25;98137.06;;;19.63;100.00
48792;BME280;34587;48.816;9.420;2023-09-18T06:47:53;98136.88;;;19.52;100.00
48792;BME280;34587;48.816;9.420;2023-09-18T06:50:18;98137.81;;;19.65;100.00
48792;BME280;34587;48.816;9.420;2023-09-18T06:52:47;98146.44;;;19.53;100.00
48792;BME280;34587;48.816;9.420;2023-09-18T06:55:12;98141.75;;;19.85;100.00
48792;BME280;34587;48.816;9.420;2023-09-18T06:57:38;98146.59;;;19.79;100.00
48792;BME280;34587;48.816;9.420;2023-09-18T07:00:04;98146.22;;;20.10;100.00
48792;BME280;34587;48.816;9.420;2023-09-18T07:02:30;98146.63;;;20.04;100.00
48792;BME280;34587;48.816;9.420;2023-09-18T07:04:55;98141.56;;;20.01;100.00
48792;BME280;34587;48.816;9.420;2023-09-18T07:07:21;98148.31;;;20.05;100.00
48792;BME280;34587;48.816;9.420;2023-09-18T07:09:50;98149.50;;;20.14;100.00
48792;BME280;34587;48.816;9.420;2023-09-18T07:12:16;98143.72;;;20.34;100.00
48792;BME280;34587;48.816;9.420;2023-09-18T07:14:45;98151.00;;;20.43;100.00
48792;BME280;34587;48.816;9.420;2023-09-18T07:17:10;98157.97;;;20.57;100.00
48792;BME280;34587;48.816;9.420;2023-09-18T07:19:36;98153.44;;;20.59;100.00
48792;BME280;34587;48.816;9.420;2023-09-18T07:22:01;98167.56;;;20.58;100.00
48792;BME280;34587;48.816;9.420;2023-09-18T07:24:27;98146.91;;;20.77;100.00
48792;BME280;34587;48.816;9.420;2023-09-18T07:26:52;98149.22;;;20.95;100.00
48792;BME280;34587;48.816;9.420;2023-09-18T07:29:18;98156.56;;;21.02;100.00
48792;BME280;34587;48.816;9.420;2023-09-18T07:31:43;98157.41;;;21.03;100.00
48792;BME280;34587;48.816;9.420;2023-09-18T07:34:09;98151.47;;;21.38;100.00
48792;BME280;34587;48.816;9.420;2023-09-18T07:36:34;98144.97;;;21.18;100.00
48792;BME280;34587;48.816;9.420;2023-09-18T07:38:59;98157.75;;;20.73;100.00
48792;BME280;34587;48.816;9.420;2023-09-18T07:41:25;98157.13;;;20.82;100.00
48792;BME280;34587;48.816;9.420;2023-09-18T07:43:50;98155.66;;;20.91;100.00
48792;BME280;34587;48.816;9.420;2023-09-18T07:46:16;98176.41;;;21.08;100.00
48792;BME280;34587;48.816;9.420;2023-09-18T07:48:41;98179.56;;;20.88;100.00
48792;BME280;34587;48.816;9.420;2023-09-18T07:51:11;98193.84;;;21.22;100.00
48792;BME280;34587;48.816;9.420;2023-09-18T07:53:36;98202.94;;;21.05;100.00
48792;BME280;34587;48.816;9.420;2023-09-18T07:56:02;98207.34;;;21.17;100.00
48792;BME280;34587;48.816;9.420;2023-09-18T07:58:30;98207.25;;;21.06;100.00
48792;BME280;34587;48.816;9.420;2023-09-18T08:00:55;98209.88;;;21.19;100.00
48792;BME280;34587;48.816;9.420;2023-09-18T08:03:22;98200.59;;;21.39;100.00
48792;BME280;34587;48.816;9.420;2023-09-18T08:05:50;98196.97;;;21.52;100.00
48792;BME280;34587;48.816;9.420;2023-09-18T08:08:17;98212.06;;;21.74;100.00
48792;BME280;34587;48.816;9.420;2023-09-18T08:10:42;98225.50;;;21.95;100.00
48792;BME280;34587;48.816;9.420;2023-09-18T08:13:07;98217.66;;;22.42;100.00
48792;BME280;34587;48.816;9.420;2023-09-18T08:15:33;98216.25;;;22.49;100.00
48792;BME280;34587;48.816;9.420;2023-09-18T08:17:58;98217.94;;;22.61;100.00
48792;BME280;34587;48.816;9.420;2023-09-18T08:20:25;98213.72;;;22.94;100.00
48792;BME280;34587;48.816;9.420;2023-09-18T08:22:51;98213.75;;;23.16;100.00
48792;BME280;34587;48.816;9.420;2023-09-18T08:25:17;98218.22;;;22.80;100.00
48792;BME280;34587;48.816;9.420;2023-09-18T08:27:42;98222.84;;;23.23;100.00
48792;BME280;34587;48.816;9.420;2023-09-18T08:30:10;98237.09;;;22.87;100.00
48792;BME280;34587;48.816;9.420;2023-09-18T08:32:37;98242.72;;;22.36;100.00
48792;BME280;34587;48.816;9.420;2023-09-18T08:35:02;98267.31;;;22.37;100.00
48792;BME280;34587;48.816;9.420;2023-09-18T08:37:27;98265.97;;;22.07;100.00
48792;BME280;34587;48.816;9.420;2023-09-18T08:39:53;98278.09;;;21.86;100.00
48792;BME280;34587;48.816;9.420;2023-09-18T08:42:20;98275.38;;;21.74;100.00
48792;BME280;34587;48.816;9.420;2023-09-18T08:44:48;98275.38;;;21.74;100.00
48792;BME280;34587;48.816;9.420;2023-09-18T08:47:14;98273.75;;;21.48;100.00
48792;BME280;34587;48.816;9.420;2023-09-18T08:49:41;98286.50;;;21.28;100.00
48792;BME280;34587;48.816;9.420;2023-09-18T08:52:07;98286.38;;;21.17;100.00
48792;BME280;34587;48.816;9.420;2023-09-18T08:54:33;98284.94;;;21.13;100.00
48792;BME280;34587;48.816;9.420;2023-09-18T08:56:58;98296.72;;;20.95;100.00
48792;BME280;34587;48.816;9.420;2023-09-18T08:59:24;98301.78;;;20.85;100.00
48792;BME280;34587;48.816;9.420;2023-09-18T09:01:50;98303.41;;;20.73;100.00
48792;BME280;34587;48.816;9.420;2023-09-18T09:04:16;98305.63;;;20.67;100.00
48792;BME280;34587;48.816;9.420;2023-09-18T09:06:41;98302.34;;;20.50;100.00
48792;BME280;34587;48.816;9.420;2023-09-18T09:09:06;98317.00;;;20.40;100.00
48792;BME280;34587;48.816;9.420;2023-09-18T09:11:33;98312.25;;;20.33;100.00
48792;BME280;34587;48.816;9.420;2023-09-18T09:14:12;98322.00;;;20.31;100.00
48792;BME280;34587;48.816;9.420;2023-09-18T09:16:41;98326.19;;;20.20;100.00
48792;BME280;34587;48.816;9.420;2023-09-18T09:19:11;98312.44;;;20.02;100.00
48792;BME280;34587;48.816;9.420;2023-09-18T09:21:41;98326.66;;;19.71;100.00
48792;BME280;34587;48.816;9.420;2023-09-18T09:24:08;98350.50;;;19.40;100.00
48792;BME280;34587;48.816;9.420;2023-09-18T09:26:36;98348.59;;;19.13;100.00
48792;BME280;34587;48.816;9.420;2023-09-18T09:29:15;98343.88;;;19.04;100.00
48792;BME280;34587;48.816;9.420;2023-09-18T09:31:41;98344.06;;;19.01;100.00
48792;BME280;34587;48.816;9.420;2023-09-18T09:34:06;98339.41;;;19.20;100.00
48792;BME280;34587;48.816;9.420;2023-09-18T09:36:34;98322.88;;;19.18;100.00
48792;BME280;34587;48.816;9.420;2023-09-18T09:38:59;98306.38;;;19.16;100.00
48792;BME280;34587;48.816;9.420;2023-09-18T09:41:25;98296.72;;;19.45;100.00
48792;BME280;34587;48.816;9.420;2023-09-18T09:43:53;98289.97;;;19.70;100.00
48792;BME280;34587;48.816;9.420;2023-09-18T09:46:20;98297.13;;;19.39;100.00
48792;BME280;34587;48.816;9.420;2023-09-18T09:48:59;98300.75;;;19.37;100.00
48792;BME280;34587;48.816;9.420;2023-09-18T09:51:26;98319.31;;;19.34;100.00
48792;BME280;34587;48.816;9.420;2023-09-18T09:53:51;98319.25;;;19.35;100.00
48792;BME280;34587;48.816;9.420;2023-09-18T09:56:18;98317.50;;;19.64;100.00
48792;BME280;34587;48.816;9.420;2023-09-18T09:59:05;98309.59;;;19.79;100.00
48792;BME280;34587;48.816;9.420;2023-09-18T10:01:35;98298.31;;;20.18;100.00
48792;BME280;34587;48.816;9.420;2023-09-18T10:04:30;98276.03;;;20.50;100.00
48792;BME280;34587;48.816;9.420;2023-09-18T10:07:06;98262.84;;;20.63;100.00
48792;BME280;34587;48.816;9.420;2023-09-18T10:09:39;98259.41;;;20.75;100.00
48792;BME280;34587;48.816;9.420;2023-09-18T10:12:10;98278.44;;;20.53;100.00
48792;BME280;34587;48.816;9.420;2023-09-18T10:14:36;98304.44;;;20.58;100.00
48792;BME280;34587;48.816;9.420;2023-09-18T10:17:17;98334.88;;;20.35;100.00
48792;BME280;34587;48.816;9.420;2023-09-18T10:22:45;98349.13;;;20.18;100.00
48792;BME280;34587;48.816;9.420;2023-09-18T10:25:20;98339.50;;;20.32;100.00
48792;BME280;34587;48.816;9.420;2023-09-18T10:27:48;98335.94;;;20.33;100.00
48792;BME280;34587;48.816;9.420;2023-09-18T10:30:15;98321.13;;;20.17;100.00
48792;BME280;34587;48.816;9.420;2023-09-18T10:32:44;98340.16;;;19.94;100.00
48792;BME280;34587;48.816;9.420;2023-09-18T10:35:14;98342.97;;;19.91;100.00
48792;BME280;34587;48.816;9.420;2023-09-18T10:37:41;98350.28;;;20.00;100.00
48792;BME280;34587;48.816;9.420;2023-09-18T10:40:11;98380.81;;;20.02;100.00
48792;BME280;34587;48.816;9.420;2023-09-18T10:42:38;98382.34;;;19.92;100.00
48792;BME280;34587;48.816;9.420;2023-09-18T10:45:04;98377.72;;;19.82;100.00
48792;BME280;34587;48.816;9.420;2023-09-18T10:47:31;98398.38;;;19.59;100.00
48792;BME280;34587;48.816;9.420;2023-09-18T10:49:57;98405.78;;;19.52;100.00
48792;BME280;34587;48.816;9.420;2023-09-18T10:52:22;98403.41;;;19.48;100.00
48792;BME280;34587;48.816;9.420;2023-09-18T10:54:48;98395.81;;;19.43;100.00
48792;BME280;34587;48.816;9.420;2023-09-18T10:57:13;98381.44;;;19.20;100.00
48792;BME280;34587;48.816;9.420;2023-09-18T10:59:45;98379.31;;;18.97;100.00
48792;BME280;34587;48.816;9.420;2023-09-18T11:02:14;98382.13;;;18.94;100.00
48792;BME280;34587;48.816;9.420;2023-09-18T11:04:41;98385.28;;;18.85;100.00
48792;BME280;34587;48.816;9.420;2023-09-18T11:07:06;98372.41;;;18.80;100.00
48792;BME280;34587;48.816;9.420;2023-09-18T11:09:41;98362.06;;;18.93;100.00
48792;BME280;34587;48.816;9.420;2023-09-18T11:12:09;98334.16;;;19.06;100.00
48792;BME280;34587;48.816;9.420;2023-09-18T11:14:57;98340.50;;;19.02;100.00
48792;BME280;34587;48.816;9.420;2023-09-18T11:22:55;98321.97;;;19.05;100.00
48792;BME280;34587;48.816;9.420;2023-09-18T11:27:55;98333.66;;;18.69;100.00
48792;BME280;34587;48.816;9.420;2023-09-18T11:30:21;98334.00;;;18.63;100.00
48792;BME280;34587;48.816;9.420;2023-09-18T11:32:47;98337.72;;;18.59;100.00
48792;BME280;34587;48.816;9.420;2023-09-18T11:35:12;98326.75;;;18.68;100.00
48792;BME280;34587;48.816;9.420;2023-09-18T11:37:38;98320.66;;;18.52;100.00
48792;BME280;34587;48.816;9.420;2023-09-18T11:40:05;98337.56;;;18.62;100.00
48792;BME280;34587;48.816;9.420;2023-09-18T11:42:33;98353.13;;;18.65;100.00
48792;BME280;34587;48.816;9.420;2023-09-18T11:44:58;98349.41;;;18.69;100.00
48792;BME280;34587;48.816;9.420;2023-09-18T11:47:25;98351.78;;;18.74;100.00
48792;BME280;34587;48.816;9.420;2023-09-18T11:49:53;98346.38;;;18.77;100.00
48792;BME280;34587;48.816;9.420;2023-09-18T11:52:25;98307.25;;;18.72;100.00
48792;BME280;34587;48.816;9.420;2023-09-18T11:54:51;98303.81;;;18.86;100.00
48792;BME280;34587;48.816;9.420;2023-09-18T11:57:19;98328.63;;;19.11;100.00
48792;BME280;34587;48.816;9.420;2023-09-18T11:59:45;98327.97;;;19.21;100.00
48792;BME280;34587;48.816;9.420;2023-09-18T12:02:12;98342.97;;;19.34;100.00
48792;BME280;34587;48.816;9.420;2023-09-18T12:04:45;98337.84;;;19.61;100.00
48792;BME280;34587;48.816;9.420;2023-09-18T12:07:11;98327.41;;;19.45;100.00
48792;BME280;34587;48.816;9.420;2023-09-18T12:09:37;98335.09;;;19.48;100.00
48792;BME280;34587;48.816;9.420;2023-09-18T12:12:05;98324.41;;;19.37;100.00
48792;BME280;34587;48.816;9.420;2023-09-18T12:14:32;98322.16;;;19.45;100.00
48792;BME280;34587;48.816;9.420;2023-09-18T12:17:00;98325.25;;;19.37;100.00
48792;BME280;34587;48.816;9.420;2023-09-18T12:19:27;98322.91;;;19.33;100.00
48792;BME280;34587;48.816;9.420;2023-09-18T12:21:52;98331.28;;;19.54;100.00
48792;BME280;34587;48.816;9.420;2023-09-18T12:24:24;98347.94;;;19.38;100.00
48792;BME280;34587;48.816;9.420;2023-09-18T12:26:51;98357.84;;;19.63;100.00
48792;BME280;34587;48.816;9.420;2023-09-18T12:29:17;98349.97;;;19.77;100.00
48792;BME280;34587;48.816;9.420;2023-09-18T12:31:42;98323.00;;;19.74;100.00
48792;BME280;34587;48.816;9.420;2023-09-18T12:34:17;98290.06;;;19.83;100.00
48792;BME280;34587;48.816;9.420;2023-09-18T12:36:44;98298.66;;;19.85;100.00
48792;BME280;34587;48.816;9.420;2023-09-18T12:39:12;98304.50;;;20.17;100.00
48792;BME280;34587;48.816;9.420;2023-09-18T12:41:38;98312.28;;;20.18;100.00
48792;BME280;34587;48.816;9.420;2023-09-18T12:44:05;98304.00;;;20.24;100.00
48792;BME280;34587;48.816;9.420;2023-09-18T12:46:31;98300.09;;;20.17;100.00
48792;BME280;34587;48.816;9.420;2023-09-18T12:48:58;98296.88;;;20.66;100.00
48792;BME280;34587;48.816;9.420;2023-09-18T12:51:31;98302.63;;;20.98;100.00
48792;BME280;34587;48.816;9.420;2023-09-18T12:54:00;98291.06;;;21.39;100.00
48792;BME280;34587;48.816;9.420;2023-09-18T12:56:26;98283.97;;;21.40;100.00
48792;BME280;34587;48.816;9.420;2023-09-18T12:58:51;98298.19;;;21.63;100.00
48792;BME280;34587;48.816;9.420;2023-09-18T13:01:17;98310.53;;;21.99;100.00
48792;BME280;34587;48.816;9.420;2023-09-18T13:03:43;98308.81;;;21.61;100.00
48792;BME280;34587;48.816;9.420;2023-09-18T13:06:15;98307.13;;;21.60;100.00
48792;BME280;34587;48.816;9.420;2023-09-18T13:08:42;98303.78;;;21.95;100.00
48792;BME280;34587;48.816;9.420;2023-09-18T13:11:08;98303.13;;;22.04;100.00
48792;BME280;34587;48.816;9.420;2023-09-18T13:13:33;98305.41;;;22.21;100.00
48792;BME280;34587;48.816;9.420;2023-09-18T13:16:00;98303.16;;;22.52;100.00
48792;BME280;34587;48.816;9.420;2023-09-18T13:18:26;98296.16;;;22.86;100.00
48792;BME280;34587;48.816;9.420;2023-09-18T13:20:53;98296.97;;;22.64;100.00
48792;BME280;34587;48.816;9.420;2023-09-18T13:23:19;98293.38;;;22.76;100.00
48792;BME280;34587;48.816;9.420;2023-09-18T13:25:44;98289.44;;;23.17;100.00
48792;BME280;34587;48.816;9.420;2023-09-18T13:28:13;98265.63;;;23.73;100.00
48792;BME280;34587;48.816;9.420;2023-09-18T13:30:40;98255.16;;;23.38;100.00
48792;BME280;34587;48.816;9.420;2023-09-18T13:33:13;98261.53;;;23.80;100.00
48792;BME280;34587;48.816;9.420;2023-09-18T13:35:43;98245.19;;;23.19;100.00
48792;BME280;34587;48.816;9.420;2023-09-18T13:38:10;98238.72;;;23.46;100.00
48792;BME280;34587;48.816;9.420;2023-09-18T13:40:43;98252.16;;;23.43;100.00
48792;BME280;34587;48.816;9.420;2023-09-18T13:43:10;98257.69;;;23.40;100.00
48792;BME280;34587;48.816;9.420;2023-09-18T13:45:36;98269.72;;;23.55;100.00
48792;BME280;34587;48.816;9.420;2023-09-18T13:48:02;98275.38;;;23.73;100.00
48792;BME280;34587;48.816;9.420;2023-09-18T13:50:28;98274.81;;;24.01;100.00
48792;BME280;34587;48.816;9.420;2023-09-18T13:52:53;98267.13;;;24.09;97.01
48792;BME280;34587;48.816;9.420;2023-09-18T13:55:19;98258.56;;;24.06;96.24
48792;BME280;34587;48.816;9.420;2023-09-18T13:57:44;98271.84;;;23.83;100.00
48792;BME280;34587;48.816;9.420;2023-09-18T14:00:10;98258.63;;;23.83;100.00
48792;BME280;34587;48.816;9.420;2023-09-18T14:02:40;98264.69;;;23.41;100.00
48792;BME280;34587;48.816;9.420;2023-09-18T14:05:07;98258.91;;;23.24;100.00
48792;BME280;34587;48.816;9.420;2023-09-18T14:07:33;98265.31;;;22.87;100.00
48792;BME280;34587;48.816;9.420;2023-09-18T14:09:58;98247.13;;;23.17;100.00
48792;BME280;34587;48.816;9.420;2023-09-18T14:12:24;98248.56;;;23.32;100.00
48792;BME280;34587;48.816;9.420;2023-09-18T14:14:50;98247.09;;;22.95;100.00
48792;BME280;34587;48.816;9.420;2023-09-18T14:17:16;98238.53;;;22.80;100.00
48792;BME280;34587;48.816;9.420;2023-09-18T14:19:43;98241.38;;;23.12;100.00
48792;BME280;34587;48.816;9.420;2023-09-18T14:22:09;98243.75;;;22.93;100.00
48792;BME280;34587;48.816;9.420;2023-09-18T14:24:34;98241.50;;;22.75;100.00
48792;BME280;34587;48.816;9.420;2023-09-18T14:27:01;98217.75;;;22.87;100.00
48792;BME280;34587;48.816;9.420;2023-09-18T14:29:27;98212.59;;;22.85;100.00
48792;BME280;34587;48.816;9.420;2023-09-18T14:31:52;98222.53;;;22.70;100.00
48792;BME280;34587;48.816;9.420;2023-09-18T14:34:18;98225.88;;;22.72;100.00
48792;BME280;34587;48.816;9.420;2023-09-18T14:36:43;98216.84;;;22.99;100.00
48792;BME280;34587;48.816;9.420;2023-09-18T14:39:10;98225.56;;;22.88;100.00
48792;BME280;34587;48.816;9.420;2023-09-18T14:41:37;98221.66;;;22.94;100.00
48792;BME280;34587;48.816;9.420;2023-09-18T14:44:07;98231.34;;;22.47;100.00
48792;BME280;34587;48.816;9.420;2023-09-18T14:46:34;98227.38;;;22.41;100.00
48792;BME280;34587;48.816;9.420;2023-09-18T14:49:00;98231.84;;;22.52;100.00
48792;BME280;34587;48.816;9.420;2023-09-18T14:51:26;98226.75;;;22.38;100.00
48792;BME280;34587;48.816;9.420;2023-09-18T14:53:51;98217.19;;;22.48;100.00
48792;BME280;34587;48.816;9.420;2023-09-18T14:56:16;98218.63;;;22.41;100.00
48792;BME280;34587;48.816;9.420;2023-09-18T14:58:42;98217.69;;;22.53;100.00
48792;BME280;34587;48.816;9.420;2023-09-18T15:01:09;98211.59;;;22.64;100.00
48792;BME280;34587;48.816;9.420;2023-09-18T15:03:35;98194.47;;;22.92;99.02
48792;BME280;34587;48.816;9.420;2023-09-18T15:06:00;98193.88;;;22.88;100.00
48792;BME280;34587;48.816;9.420;2023-09-18T15:08:26;98192.28;;;22.74;100.00
48792;BME280;34587;48.816;9.420;2023-09-18T15:10:52;98185.78;;;22.67;100.00
48792;BME280;34587;48.816;9.420;2023-09-18T15:13:17;98169.03;;;23.02;98.40
48792;BME280;34587;48.816;9.420;2023-09-18T15:15:43;98162.06;;;23.01;97.53
48792;BME280;34587;48.816;9.420;2023-09-18T15:18:08;98154.59;;;23.06;95.51
48792;BME280;34587;48.816;9.420;2023-09-18T15:20:34;98159.16;;;23.15;99.98
48792;BME280;34587;48.816;9.420;2023-09-18T15:22:59;98161.22;;;23.23;98.64
48792;BME280;34587;48.816;9.420;2023-09-18T15:25:24;98156.03;;;22.88;98.24
48792;BME280;34587;48.816;9.420;2023-09-18T15:27:50;98156.25;;;22.62;100.00
48792;BME280;34587;48.816;9.420;2023-09-18T15:30:15;98167.50;;;22.30;100.00
48792;BME280;34587;48.816;9.420;2023-09-18T15:32:52;98177.06;;;22.20;100.00
48792;BME280;34587;48.816;9.420;2023-09-18T15:35:22;98163.38;;;22.15;100.00
48792;BME280;34587;48.816;9.420;2023-09-18T15:37:48;98159.44;;;22.32;100.00
48792;BME280;34587;48.816;9.420;2023-09-18T15:40:14;98146.88;;;22.47;100.00
48792;BME280;34587;48.816;9.420;2023-09-18T15:42:41;98147.63;;;22.60;100.00
48792;BME280;34587;48.816;9.420;2023-09-18T15:45:07;98147.63;;;22.60;100.00
48792;BME280;34587;48.816;9.420;2023-09-18T15:47:34;98158.31;;;22.58;100.00
48792;BME280;34587;48.816;9.420;2023-09-18T15:49:59;98154.78;;;22.36;100.00
48792;BME280;34587;48.816;9.420;2023-09-18T15:52:25;98161.66;;;22.14;100.00
48792;BME280;34587;48.816;9.420;2023-09-18T15:54:50;98159.59;;;21.83;100.00
48792;BME280;34587;48.816;9.420;2023-09-18T15:57:16;98152.84;;;22.02;100.00
48792;BME280;34587;48.816;9.420;2023-09-18T15:59:42;98152.06;;;22.13;100.00
48792;BME280;34587;48.816;9.420;2023-09-18T16:02:07;98147.81;;;22.35;100.00
48792;BME280;34587;48.816;9.420;2023-09-18T16:04:32;98147.69;;;22.25;100.00
48792;BME280;34587;48.816;9.420;2023-09-18T16:06:58;98129.91;;;22.27;100.00
48792;BME280;34587;48.816;9.420;2023-09-18T16:09:24;98130.44;;;22.08;100.00
48792;BME280;34587;48.816;9.420;2023-09-18T16:11:49;98136.72;;;22.18;100.00
48792;BME280;34587;48.816;9.420;2023-09-18T16:14:14;98139.28;;;22.20;100.00
48792;BME280;34587;48.816;9.420;2023-09-18T16:16:45;98142.28;;;22.02;100.00
48792;BME280;34587;48.816;9.420;2023-09-18T16:19:10;98141.31;;;21.92;100.00
48792;BME280;34587;48.816;9.420;2023-09-18T16:21:36;98132.63;;;22.14;100.00
48792;BME280;34587;48.816;9.420;2023-09-18T16:24:01;98134.13;;;22.29;100.00
48792;BME280;34587;48.816;9.420;2023-09-18T16:26:31;98126.84;;;22.09;100.00
48792;BME280;34587;48.816;9.420;2023-09-18T16:28:57;98124.38;;;21.95;100.00
48792;BME280;34587;48.816;9.420;2023-09-18T16:31:23;98138.53;;;21.94;100.00
48792;BME280;34587;48.816;9.420;2023-09-18T16:33:51;98134.78;;;21.85;100.00
48792;BME280;34587;48.816;9.420;2023-09-18T16:36:16;98137.38;;;21.74;100.00
48792;BME280;34587;48.816;9.420;2023-09-18T16:38:41;98138.22;;;21.74;100.00
48792;BME280;34587;48.816;9.420;2023-09-18T16:41:07;98136.03;;;21.68;100.00
48792;BME280;34587;48.816;9.420;2023-09-18T16:43:32;98136.72;;;21.59;100.00
48792;BME280;34587;48.816;9.420;2023-09-18T16:45:58;98138.13;;;21.52;100.00
48792;BME280;34587;48.816;9.420;2023-09-18T16:48:23;98144.28;;;21.40;100.00
48792;BME280;34587;48.816;9.420;2023-09-18T16:50:49;98139.00;;;21.40;100.00
48792;BME280;34587;48.816;9.420;2023-09-18T16:53:14;98131.66;;;21.32;100.00
48792;BME280;34587;48.816;9.420;2023-09-18T16:55:40;98133.13;;;21.23;100.00
48792;BME280;34587;48.816;9.420;2023-09-18T16:58:05;98128.19;;;21.19;100.00
48792;BME280;34587;48.816;9.420;2023-09-18T17:00:30;98130.66;;;21.09;100.00
48792;BME280;34587;48.816;9.420;2023-09-18T17:02:56;98143.00;;;20.96;100.00
48792;BME280;34587;48.816;9.420;2023-09-18T17:05:21;98149.09;;;20.84;100.00
48792;BME280;34587;48.816;9.420;2023-09-18T17:07:47;98153.03;;;20.65;100.00
48792;BME280;34587;48.816;9.420;2023-09-18T17:10:14;98157.25;;;20.55;100.00
48792;BME280;34587;48.816;9.420;2023-09-18T17:12:39;98146.19;;;20.50;100.00
48792;BME280;34587;48.816;9.420;2023-09-18T17:15:06;98149.00;;;20.21;100.00